Terminal Aerodrome Forecast
Issued by NWS

Home | Current Version | Previous Version | Text Only | Print | Product List | Glossary Off
Versions: 1 2 3 4 5 6 7 8 9 10 11 12 13 14 15 16

000
FTUS43 KIWX 300100 AAA
TAFSBN
TAF AMD
KSBN 300100Z 3001/3024 27005KT P6SM FEW060
     FM300300 27004KT P6SM VCSH SCT060
     FM300600 VRB03KT P6SM SCT070
     FM301600 30010KT P6SM SCT040 BKN250=

USA.gov is the U.S. government's official web portal to all federal, state and local government web resources and services.